Impacts TAF Board INFO
FOR SITUATIONAL AWARENESS. NOT TO BE USED FOR FLIGHT PLANNING PURPOSES.
IDs:

KEWR - Newark Intl, NJ, US

Issued at 1120 UTC 19 Jun 2018
Updated at 1238 UTC 19 Jun 2018
Potential Impact None Slight Moderate High
Time1151Z 19/13Z 19/14Z 19/15Z 19/16Z 19/17Z 19/18Z 19/19Z 19/20Z 19/21Z 19/22Z 19/23Z 20/00Z 20/01Z>>
Type OBS PRVL PRVL PRVL PRVL PRVL PRVL PRVL PRVL PRVL PRVL PRVL PRVL PRVL
VIS 10 >6 >6 >6 >6 >6 >6 >6 >6 >6 >6 >6 >6 >6
CIG 140 40 40 -- -- -- -- -- -- -- -- -- -- --
Cover BKN BKN BKN SCT SCT SCT SCT FEW FEW FEW FEW FEW FEW FEW
FltCat VFR VFR VFR VFR VFR VFR VFR VFR VFR VFR VFR VFR VFR VFR
WX -- -- -- -- -- -- -- -- -- -- -- -- -- --
WDir 270 320 320 350 350 350 350 340 340 340 340 340 340 340
WSpd 7 10 10 11 11 11 11 8 8 8 8 8 8 8
WGst -- 16 16 17 16 16 16 -- -- -- -- -- -- --

Raw TAF
KEWR 191120Z 1912/2018 32010G16KT P6SM BKN040
  FM191500 35011G17KT P6SM SCT040
  FM191600 35011G16KT P6SM FEW050 SCT250
  FM191900 34008KT P6SM FEW050 FEW250


Raw METAR
KEWR 191151Z 27007KT 10SM FEW040 SCT080 BKN140 BKN250 26/22 A2978 RMK AO2 SLP083 60000 70031 T02560222 10261 20244 51016 $
KEWR 191051Z 27006KT 10SM FEW060 SCT085 BKN140 BKN250 25/23 A2977 RMK AO2 SLP080 T02500228 $
KEWR 190951Z 26003KT 10SM BKN150 BKN260 24/23 A2975 RMK AO2 SLP073 T02440228 $

METAR Board
Radar Display
Forecast Discussion

FOR SITUATIONAL AWARENESS. NOT TO BE USED FOR FLIGHT PLANNING PURPOSES.